Thunder radar more information blitzortung!


Radar de pluja more information rain snow radar


Visita la nostra xarxa de llocs de meteo:

Template documentation
and downloads

And another site



No particular awareness of the weather is required.    There are no Weather-warnings

Pagina Historial Weather Underground text

Diari Resum Juny 27, 2017 Unitats:  Imperial    Mètric   Tant
« Previous Dia
SegĂźent Dia »
Diari Setmana Mensual Anual Personalitzada
  Maxima: Minima: Media:
Temperatura: TemperatureC °F 20.5 °F 25.6 °F
Punt de rosada: DewpointC °F 15.3 °F 17.6 °F
Humitat: Humidity % 47 % 62 %
Wind Speed: WindSpeedKMH mph 0.0 mph 6.5 mph
RĂ fegues de vent: WindSpeedGustKMH mph - -
Vent:- - SSE
Pression baro: PressurehPa in 1000.9 in -
Precipitacions: 0.0 in    
Historical Graphs
 
 
Dades de taula per Juny 27, 2017
Temps Temperatura Punt de rosada Pression baro Vent Wind Speed RĂ fegues de vent Humitat Rainfall Rate (Hourly)
TemperatureC °F DewpointC °F PressurehPa in Calm     Humidity % HourlyPrecipMM in
00:00 21.2 °F 15.7 °F 1008.0 in NNE 1.6 mph   71 % 0.0 in
00:01 24.4 °F 15.3 °F 1008.0 in West 5.6 mph 5.6 mph 57 % 0.0 in
00:06 24.4 °F 15.3 °F 1008.0 in WSW 5.6 mph 5.6 mph 57 % 0.0 in
00:10 21.2 °F 15.9 °F 1008.0 in Calm     72 % 0.0 in
00:20 21.2 °F 15.9 °F 1008.0 in NNW 1.6 mph 3.2 mph 72 % 0.0 in
00:30 21.2 °F 15.9 °F 1008.0 in Calm   1.6 mph 72 % 0.0 in
00:40 21.0 °F 16.0 °F 1008.0 in Calm   1.6 mph 73 % 0.0 in
00:50 20.9 °F 15.9 °F 1007.0 in Calm     73 % 0.0 in
01:00 20.9 °F 15.9 °F 1007.0 in Calm   1.6 mph 73 % 0.0 in
01:10 20.9 °F 16.1 °F 1007.0 in Calm   1.6 mph 74 % 0.0 in
01:20 20.9 °F 15.9 °F 1007.0 in NNE 3.2 mph 3.2 mph 73 % 0.0 in
01:30 20.8 °F 16.0 °F 1007.0 in NE 1.6 mph 3.2 mph 74 % 0.0 in
01:40 20.7 °F 15.9 °F 1007.0 in Calm   1.6 mph 74 % 0.0 in
01:50 20.5 °F 15.5 °F 1007.0 in NNE 1.6 mph 1.6 mph 73 % 0.0 in
02:00 20.5 °F 15.7 °F 1007.0 in WNW 1.6 mph 1.6 mph 74 % 0.0 in
02:10 20.7 °F 15.9 °F 1007.0 in WSW 1.6 mph 3.2 mph 74 % 0.0 in
02:20 20.9 °F 16.1 °F 1007.0 in Calm   1.6 mph 74 % 0.0 in
02:30 21.1 °F 16.3 °F 1007.0 in East 1.6 mph 3.2 mph 74 % 0.0 in
02:40 21.2 °F 16.4 °F 1007.0 in Calm   1.6 mph 74 % 0.0 in
02:50 21.8 °F 16.9 °F 1008.0 in North 1.6 mph 4.8 mph 74 % 0.0 in
03:00 21.5 °F 16.4 °F 1008.0 in NE 3.2 mph 4.8 mph 73 % 0.0 in
03:10 21.5 °F 16.4 °F 1008.0 in NE 1.6 mph 4.8 mph 73 % 0.0 in
03:20 21.7 °F 16.4 °F 1008.0 in NE 1.6 mph 3.2 mph 72 % 0.0 in
03:30 21.8 °F 16.3 °F 1008.0 in NE 3.2 mph 4.8 mph 71 % 0.0 in
03:40 21.9 °F 16.4 °F 1008.0 in NE 3.2 mph 4.8 mph 71 % 0.0 in
03:50 22.3 °F 16.6 °F 1008.0 in NE 1.6 mph 6.4 mph 70 % 0.0 in
04:00 22.4 °F 16.7 °F 1008.0 in NE 1.6 mph 6.4 mph 70 % 0.0 in
04:10 22.8 °F 17.1 °F 1008.0 in NE 3.2 mph 3.2 mph 70 % 0.0 in
04:20 23.5 °F 17.5 °F 1008.0 in NE 1.6 mph 3.2 mph 69 % 0.0 in
04:30 24.1 °F 17.8 °F 1008.0 in NNE 1.6 mph 4.8 mph 68 % 0.0 in
04:40 24.0 °F 17.9 °F 1008.0 in ENE 3.2 mph 4.8 mph 69 % 0.0 in
04:50 24.4 °F 18.1 °F 1008.0 in East 4.8 mph 4.8 mph 68 % 0.0 in
05:00 25.2 °F 18.6 °F 1008.0 in ESE 3.2 mph 6.4 mph 67 % 0.0 in
05:10 26.0 °F 18.9 °F 1008.0 in SSE 3.2 mph 4.8 mph 65 % 0.0 in
05:20 26.2 °F 18.8 °F 1008.0 in SSE 4.8 mph 6.4 mph 64 % 0.0 in
05:30 25.9 °F 18.6 °F 1008.0 in ESE 4.8 mph 6.4 mph 64 % 0.0 in
05:40 26.3 °F 18.7 °F 1007.0 in East 3.2 mph 9.7 mph 63 % 0.0 in
05:50 26.5 °F 19.1 °F 1007.0 in East 4.8 mph 8.0 mph 64 % 0.0 in
09:00 28.1 °F 18.2 °F 1006.0 in ESE 11.3 mph 11.3 mph 55 % 0.0 in
09:10 28.0 °F 17.8 °F 1006.0 in ESE 14.5 mph 20.9 mph 54 % 0.0 in
09:20 28.0 °F 18.1 °F 1006.0 in ESE 11.3 mph 12.9 mph 55 % 0.0 in
09:30 28.4 °F 17.9 °F 1006.0 in East 4.8 mph 12.9 mph 53 % 0.0 in
09:40 28.7 °F 17.9 °F 1006.0 in SE 9.7 mph 9.7 mph 52 % 0.0 in
09:50 28.6 °F 17.8 °F 1006.0 in SE 8.0 mph 17.7 mph 52 % 0.0 in
10:00 28.1 °F 17.6 °F 1006.0 in ESE 9.7 mph 12.9 mph 53 % 0.0 in
10:10 28.2 °F 17.7 °F 1005.0 in ESE 8.0 mph 11.3 mph 53 % 0.0 in
10:20 28.8 °F 18.3 °F 1006.0 in SE 3.2 mph 14.5 mph 53 % 0.0 in
10:30 28.9 °F 18.7 °F 1006.0 in SE 3.2 mph 11.3 mph 54 % 0.0 in
10:40 29.0 °F 18.2 °F 1006.0 in SE 4.8 mph 9.7 mph 52 % 0.0 in
10:50 28.4 °F 17.9 °F 1006.0 in SSE 3.2 mph 9.7 mph 53 % 0.0 in
10:52 26.9 °F 19.3 °F 1007.0 in ENE 9.5 mph 9.5 mph 63 % 0.0 in
10:57 26.8 °F 18.9 °F 1007.0 in ESE 5.8 mph 5.8 mph 62 % 0.0 in
11:00 29.6 °F 18.1 °F 1006.0 in South 3.2 mph 12.9 mph 50 % 0.0 in
11:02 26.9 °F 18.7 °F 1007.0 in ENE 11.1 mph 11.1 mph 61 % 0.0 in
11:07 27.0 °F 18.8 °F 1007.0 in ENE 7.4 mph 7.4 mph 61 % 0.0 in
11:10 29.3 °F 17.5 °F 1003.9 in SSW 4.8 mph 6.4 mph 49 % 0.0 in
11:12 27.1 °F 18.9 °F 1007.0 in NNE 9.7 mph 9.7 mph 61 % 0.0 in
11:17 27.4 °F 18.7 °F 1007.0 in East 9.3 mph 9.3 mph 59 % 0.0 in
11:20 29.3 °F 17.5 °F 1003.9 in South 9.7 mph 9.7 mph 49 % 0.0 in
11:22 28.0 °F 19.2 °F 1007.0 in ENE 11.1 mph 11.1 mph 59 % 0.0 in
11:27 27.5 °F 18.5 °F 1007.0 in ESE 11.1 mph 11.1 mph 58 % 0.0 in
11:30 29.8 °F 17.9 °F 1003.9 in SSW 4.8 mph 9.7 mph 49 % 0.0 in
11:32 27.9 °F 18.9 °F 1007.0 in East 10.3 mph 10.3 mph 58 % 0.0 in
11:37 27.7 °F 18.7 °F 1007.0 in East 11.1 mph 11.1 mph 58 % 0.0 in
11:40 30.2 °F 17.7 °F 1003.9 in SSW 3.2 mph 8.0 mph 47 % 0.0 in
11:42 27.2 °F 18.2 °F 1006.0 in East 13.0 mph 13.0 mph 58 % 0.0 in
11:47 27.5 °F 18.8 °F 1006.0 in ESE 13.0 mph 13.0 mph 59 % 0.0 in
11:52 27.7 °F 18.9 °F 1006.0 in ESE 14.8 mph 14.8 mph 59 % 0.0 in
11:57 27.5 °F 18.8 °F 1007.0 in ESE 16.7 mph 16.7 mph 59 % 0.0 in
12:02 27.7 °F 18.9 °F 1007.0 in SSE 20.4 mph 20.4 mph 59 % 0.0 in
12:07 27.8 °F 18.8 °F 1007.0 in SE 13.0 mph 13.0 mph 58 % 0.0 in
12:12 28.5 °F 19.4 °F 1006.0 in East 12.2 mph 12.2 mph 58 % 0.0 in
12:17 28.2 °F 19.2 °F 1006.0 in East 16.7 mph 16.7 mph 58 % 0.0 in
12:20 28.5 °F 19.4 °F 1006.0 in East 9.3 mph 9.5 mph 58 % 0.0 in
12:25 28.7 °F 19.1 °F 1006.0 in ESE 17.2 mph 17.2 mph 56 % 0.0 in
12:30 28.1 °F 18.8 °F 1006.0 in ESE 18.5 mph 18.5 mph 57 % 0.0 in
12:35 28.8 °F 19.4 °F 1006.0 in ESE 13.7 mph 13.7 mph 57 % 0.0 in
12:40 28.4 °F 18.8 °F 1006.0 in East 20.4 mph 20.4 mph 56 % 0.0 in
12:45 28.0 °F 18.4 °F 1006.0 in East 14.8 mph 14.8 mph 56 % 0.0 in
12:50 28.0 °F 18.4 °F 1006.0 in ENE 16.7 mph 16.7 mph 56 % 0.0 in
12:55 28.1 °F 18.2 °F 1006.0 in East 18.5 mph 18.5 mph 55 % 0.0 in
13:00 28.2 °F 18.3 °F 1006.0 in ESE 18.5 mph 18.5 mph 55 % 0.0 in
13:05 28.1 °F 17.9 °F 1006.0 in East 18.5 mph 18.5 mph 54 % 0.0 in
13:10 28.7 °F 18.8 °F 1006.0 in ESE 9.5 mph 9.5 mph 55 % 0.0 in
13:15 28.4 °F 18.2 °F 1006.0 in NE 16.7 mph 16.7 mph 54 % 0.0 in
13:20 28.4 °F 18.2 °F 1006.0 in East 18.3 mph 18.3 mph 54 % 0.0 in
13:25 28.5 °F 18.3 °F 1006.0 in East 15.6 mph 15.6 mph 54 % 0.0 in
13:30 28.3 °F 18.1 °F 1006.0 in ENE 20.4 mph 20.4 mph 54 % 0.0 in
13:35 28.0 °F 17.8 °F 1006.0 in ENE 18.5 mph 18.5 mph 54 % 0.0 in
13:40 28.0 °F 18.1 °F 1006.0 in ESE 16.7 mph 16.7 mph 55 % 0.0 in
13:45 27.8 °F 17.9 °F 1006.0 in ESE 20.4 mph 20.4 mph 55 % 0.0 in
16:43 30.0 °F 17.8 °F 1003.9 in SW 13.0 mph 13.0 mph 48 % 0.0 in
16:48 29.9 °F 17.7 °F 1003.9 in South 7.4 mph 7.4 mph 48 % 0.0 in
16:53 29.7 °F 17.5 °F 1003.9 in SW 11.1 mph 11.1 mph 48 % 0.0 in
16:58 29.8 °F 17.6 °F 1003.9 in West 9.3 mph 9.3 mph 48 % 0.0 in
17:03 29.9 °F 17.7 °F 1003.9 in SW 5.8 mph 5.8 mph 48 % 0.0 in
17:08 30.0 °F 17.8 °F 1003.9 in SSW 3.9 mph 3.9 mph 48 % 0.0 in
17:13 29.8 °F 17.6 °F 1003.9 in SW 11.9 mph 11.9 mph 48 % 0.0 in
17:18 28.9 °F 17.4 °F 1003.9 in SW 13.0 mph 13.0 mph 50 % 0.0 in
17:23 28.9 °F 17.4 °F 1003.9 in West 11.9 mph 11.9 mph 50 % 0.0 in
17:28 29.1 °F 17.3 °F 1003.9 in SW 16.7 mph 16.7 mph 49 % 0.0 in
17:33 29.1 °F 17.3 °F 1003.9 in SW 13.0 mph 13.0 mph 49 % 0.0 in
17:34 29.2 °F 17.4 °F 1003.9 in WSW 9.3 mph 9.3 mph 49 % 0.0 in
17:39 28.9 °F 17.4 °F 1003.9 in West 13.0 mph 13.0 mph 50 % 0.0 in
17:44 28.6 °F 17.4 °F 1003.9 in WSW 9.3 mph 9.7 mph 51 % 0.0 in
17:49 29.1 °F 17.6 °F 1003.9 in SW 18.5 mph 18.5 mph 50 % 0.0 in
17:54 29.1 °F 17.6 °F 1003.9 in South 9.3 mph 9.3 mph 50 % 0.0 in
17:59 29.6 °F 17.8 °F 1002.9 in SE 5.6 mph 5.6 mph 49 % 0.0 in
18:04 29.4 °F 17.6 °F 1002.9 in SSW 11.1 mph 11.1 mph 49 % 0.0 in
18:09 29.3 °F 17.5 °F 1002.9 in SW 7.4 mph 7.4 mph 49 % 0.0 in
18:14 28.7 °F 17.2 °F 1002.9 in SW 6.9 mph 6.9 mph 50 % 0.0 in
18:19 28.4 °F 17.0 °F 1002.9 in SW 3.7 mph 3.7 mph 50 % 0.0 in
18:24 28.2 °F 16.8 °F 1002.9 in South 7.4 mph 7.4 mph 50 % 0.0 in
18:29 28.2 °F 16.8 °F 1002.9 in SW 5.6 mph 5.6 mph 50 % 0.0 in
18:34 28.1 °F 17.0 °F 1002.9 in SW 5.6 mph 5.6 mph 51 % 0.0 in
18:39 27.9 °F 16.8 °F 1002.9 in SW 5.6 mph 5.6 mph 51 % 0.0 in
18:44 27.8 °F 16.7 °F 1002.9 in South 3.7 mph 3.7 mph 51 % 0.0 in
18:49 27.5 °F 16.4 °F 1002.9 in SW 11.1 mph 11.1 mph 51 % 0.0 in
18:54 27.2 °F 16.5 °F 1002.9 in SSW 7.6 mph 7.6 mph 52 % 0.0 in
18:59 27.2 °F 16.5 °F 1002.9 in WSW 5.6 mph 5.6 mph 52 % 0.0 in
19:04 27.4 °F 16.7 °F 1002.9 in SSW 13.7 mph 13.7 mph 52 % 0.0 in
19:09 27.8 °F 17.3 °F 1002.9 in South 9.3 mph 9.3 mph 53 % 0.0 in
19:14 27.7 °F 17.3 °F 1002.9 in WSW 13.0 mph 13.0 mph 53 % 0.0 in
19:19 27.7 °F 17.3 °F 1002.9 in WSW 5.6 mph 7.9 mph 53 % 0.0 in
19:20 23.4 °F 18.3 °F 1002.9 in Calm   1.6 mph 73 % 0.0 in
19:24 27.5 °F 17.1 °F 1002.9 in SW 6.4 mph 6.4 mph 53 % 0.0 in
19:29 27.5 °F 17.4 °F 1001.9 in SW 11.1 mph 11.1 mph 54 % 0.0 in
19:30 23.2 °F 18.3 °F 1002.9 in SW 3.2 mph 3.2 mph 74 % 0.0 in
19:34 27.6 °F 17.4 °F 1001.9 in WSW 9.3 mph 9.3 mph 54 % 0.0 in
19:39 27.3 °F 17.2 °F 1001.9 in WSW 14.8 mph 14.8 mph 54 % 0.0 in
19:40 23.2 °F 18.3 °F 1003.9 in Calm   3.2 mph 74 % 0.0 in
19:44 27.2 °F 17.1 °F 1001.9 in SW 9.3 mph 9.3 mph 54 % 0.0 in
19:49 27.2 °F 17.1 °F 1001.9 in SW 7.4 mph 7.4 mph 54 % 0.0 in
19:50 23.2 °F 18.3 °F 1003.9 in Calm   1.6 mph 74 % 0.0 in
19:54 27.2 °F 17.1 °F 1001.9 in SW 5.8 mph 5.8 mph 54 % 0.0 in
19:59 27.1 °F 17.3 °F 1001.9 in WNW 5.8 mph 5.8 mph 55 % 0.0 in
20:00 23.2 °F 18.3 °F 1003.9 in NE 1.6 mph 1.6 mph 74 % 0.0 in
20:04 27.0 °F 17.2 °F 1001.9 in SW 7.4 mph 7.4 mph 55 % 0.0 in
20:09 26.8 °F 17.3 °F 1001.9 in SW 9.3 mph 9.3 mph 56 % 0.0 in
20:10 23.2 °F 18.3 °F 1002.9 in NNE 3.2 mph 4.8 mph 74 % 0.0 in
20:14 26.7 °F 17.5 °F 1001.9 in SSW 7.4 mph 7.4 mph 57 % 0.0 in
20:19 26.6 °F 17.4 °F 1001.9 in WSW 11.1 mph 11.1 mph 57 % 0.0 in
20:20 23.0 °F 18.1 °F 1003.9 in Calm   3.2 mph 74 % 0.0 in
20:24 26.5 °F 17.6 °F 1001.9 in SW 8.7 mph 8.7 mph 58 % 0.0 in
20:29 26.4 °F 17.4 °F 1000.9 in SW 7.4 mph 7.4 mph 58 % 0.0 in
20:30 23.0 °F 18.3 °F 1003.9 in NE 1.6 mph 1.6 mph 75 % 0.0 in
20:34 26.4 °F 17.4 °F 1000.9 in SW 5.6 mph 5.6 mph 58 % 0.0 in
20:39 26.4 °F 17.7 °F 1000.9 in WSW 5.6 mph 5.6 mph 59 % 0.0 in
20:40 23.0 °F 18.6 °F 1002.9 in NE 1.6 mph 1.6 mph 76 % 0.0 in
20:44 26.4 °F 17.7 °F 1001.9 in East 3.7 mph 3.7 mph 59 % 0.0 in
20:49 26.2 °F 17.8 °F 1001.9 in WSW 9.3 mph 9.3 mph 60 % 0.0 in
20:50 22.9 °F 18.7 °F 1003.9 in ENE 1.6 mph 3.2 mph 77 % 0.0 in
20:54 26.0 °F 17.9 °F 1001.9 in WSW 5.6 mph 5.6 mph 61 % 0.0 in
20:59 25.9 °F 17.8 °F 1001.9 in SW 5.6 mph 5.6 mph 61 % 0.0 in
21:00 22.8 °F 18.8 °F 1003.9 in NE 3.2 mph 3.2 mph 78 % 0.0 in
21:04 25.8 °F 17.9 °F 1001.9 in SSW 3.7 mph 3.7 mph 62 % 0.0 in
21:09 25.6 °F 17.8 °F 1001.9 in SSW 7.4 mph 7.4 mph 62 % 0.0 in
21:10 22.7 °F 18.7 °F 1003.9 in NNE 3.2 mph 4.8 mph 78 % 0.0 in
21:14 25.5 °F 17.7 °F 1001.9 in SW 5.8 mph 5.8 mph 62 % 0.0 in
21:19 25.4 °F 17.8 °F 1001.9 in West 3.7 mph 3.7 mph 63 % 0.0 in
21:20 22.6 °F 18.6 °F 1003.9 in NNE 1.6 mph 4.8 mph 78 % 0.0 in
21:24 25.4 °F 17.8 °F 1001.9 in WSW 3.9 mph 3.9 mph 63 % 0.0 in
21:29 25.3 °F 17.7 °F 1001.9 in SW 3.7 mph 3.7 mph 63 % 0.0 in
21:30 22.6 °F 18.6 °F 1003.9 in NE 3.2 mph 6.4 mph 78 % 0.0 in
21:34 25.2 °F 17.9 °F 1001.9 in SW 3.7 mph 3.7 mph 64 % 0.0 in
21:39 25.1 °F 17.8 °F 1001.9 in SSW 5.6 mph 5.6 mph 64 % 0.0 in
21:40 22.6 °F 18.6 °F 1003.9 in NE 1.6 mph 1.6 mph 78 % 0.0 in
21:44 24.9 °F 17.9 °F 1000.9 in SW 5.6 mph 5.6 mph 65 % 0.0 in
21:49 24.8 °F 17.8 °F 1000.9 in SW 5.6 mph 5.6 mph 65 % 0.0 in
21:50 22.6 °F 18.6 °F 1003.9 in Calm   3.2 mph 78 % 0.0 in
21:54 24.7 °F 17.7 °F 1000.9 in West 3.7 mph 3.7 mph 65 % 0.0 in
21:59 24.7 °F 17.9 °F 1001.9 in WSW 3.7 mph 3.7 mph 66 % 0.0 in
22:00 22.6 °F 18.6 °F 1003.9 in Calm   3.2 mph 78 % 0.0 in
22:04 24.7 °F 17.9 °F 1001.9 in West 4.7 mph 4.7 mph 66 % 0.0 in
22:09 24.6 °F 17.8 °F 1001.9 in Calm     66 % 0.0 in
22:10 22.7 °F 18.9 °F 1003.9 in NNW 3.2 mph 4.8 mph 79 % 0.0 in
22:14 24.6 °F 17.8 °F 1001.9 in West 2.6 mph   66 % 0.0 in
22:19 24.6 °F 17.8 °F 1001.9 in West 3.7 mph 3.7 mph 66 % 0.0 in
22:20 22.7 °F 18.9 °F 1003.9 in Calm     79 % 0.0 in
22:24 24.6 °F 18.1 °F 1001.9 in SW 3.7 mph 3.7 mph 67 % 0.0 in
22:29 24.5 °F 17.9 °F 1001.9 in WSW 1.9 mph   67 % 0.0 in
22:30 22.4 °F 18.4 °F 1003.9 in NE 8.0 mph 8.0 mph 78 % 0.0 in
22:34 24.5 °F 17.9 °F 1001.9 in West 3.7 mph 3.7 mph 67 % 0.0 in
22:39 24.4 °F 17.9 °F 1001.9 in WSW 3.7 mph   67 % 0.0 in
22:40 22.0 °F 17.8 °F 1003.9 in East 8.0 mph 9.7 mph 77 % 0.0 in
22:44 24.4 °F 18.1 °F 1001.9 in Calm     68 % 0.0 in
22:49 24.3 °F 18.0 °F 1001.9 in WSW 3.7 mph 3.7 mph 68 % 0.0 in
22:50 21.9 °F 17.5 °F 1003.9 in East 11.3 mph 12.9 mph 76 % 0.0 in
22:54 24.3 °F 18.0 °F 1001.9 in WSW 1.9 mph   68 % 0.0 in
22:59 24.2 °F 17.9 °F 1001.9 in SW 1.9 mph   68 % 0.0 in
23:00 21.8 °F 17.2 °F 1003.9 in East 4.8 mph 9.7 mph 75 % 0.0 in
23:04 24.0 °F 17.7 °F 1001.9 in Calm     68 % 0.0 in
23:09 23.9 °F 18.1 °F 1001.9 in SW 2.6 mph 2.6 mph 70 % 0.0 in
23:10 21.8 °F 17.2 °F 1003.9 in East 8.0 mph 11.3 mph 75 % 0.0 in
23:14 23.7 °F 17.9 °F 1002.9 in SW 3.7 mph 3.7 mph 70 % 0.0 in
23:19 23.6 °F 18.1 °F 1002.9 in Calm     71 % 0.0 in
23:20 21.6 °F 17.0 °F 1003.9 in East 4.8 mph 8.0 mph 75 % 0.0 in
23:24 23.5 °F 17.9 °F 1002.9 in Calm     71 % 0.0 in
23:29 23.5 °F 17.9 °F 1002.9 in SW 1.9 mph   71 % 0.0 in
23:30 21.4 °F 16.8 °F 1003.9 in ENE 3.2 mph 6.4 mph 75 % 0.0 in
23:34 23.4 °F 17.8 °F 1002.9 in Calm     71 % 0.0 in
23:39 23.4 °F 18.1 °F 1002.9 in SW 2.3 mph 2.3 mph 72 % 0.0 in
23:40 21.2 °F 16.6 °F 1003.9 in ENE 3.2 mph 6.4 mph 75 % 0.0 in
23:44 23.4 °F 18.1 °F 1002.9 in Calm     72 % 0.0 in
23:49 23.4 °F 18.1 °F 1002.9 in SW 1.9 mph 1.9 mph 72 % 0.0 in
23:50 21.1 °F 16.5 °F 1003.9 in NE 3.2 mph 6.4 mph 75 % 0.0 in
23:54 23.4 °F 18.1 °F 1002.9 in SW 1.9 mph 2.3 mph 72 % 0.0 in
23:59 23.4 °F 18.3 °F 1002.9 in WSW 1.9 mph 1.9 mph 73 % 0.0 in
Meteo Sesrovires
Elogis d' Weather Underground - 2 mb

Guio original per  Jim McMurry - jmcmurry@mwt.net Adaptat per a la plantilla per  Wim van der Kuil - Leuven-Template.eu

Trobareu la nostra informacio del temps tambe a:

Weather Underground

AWEKAS